createdAt,value
2018-03-21T00:02:05.827Z,17.90
2018-03-21T00:05:09.021Z,17.80
2018-03-21T00:08:12.191Z,17.80
2018-03-21T00:11:16.130Z,17.70
2018-03-21T00:14:19.284Z,17.70
2018-03-21T00:17:22.468Z,17.70
2018-03-21T00:20:25.650Z,17.70
2018-03-21T00:23:28.816Z,17.60
2018-03-21T00:26:32.009Z,17.60
2018-03-21T00:29:35.167Z,17.60
2018-03-21T00:32:39.097Z,17.70
2018-03-21T00:35:43.136Z,17.70
2018-03-21T00:38:46.279Z,17.70
2018-03-21T00:41:49.474Z,17.70
2018-03-21T00:44:52.643Z,17.80
2018-03-21T00:47:56.606Z,17.80
2018-03-21T00:50:59.908Z,17.80
2018-03-21T00:54:03.056Z,17.90
2018-03-21T00:57:06.234Z,17.90
2018-03-21T01:00:09.388Z,17.90
2018-03-21T01:03:12.574Z,17.90
2018-03-21T01:06:15.753Z,17.80
2018-03-21T01:09:18.892Z,17.70
2018-03-21T01:12:22.070Z,17.70
2018-03-21T01:15:25.233Z,17.70
2018-03-21T01:18:28.477Z,17.70
2018-03-21T01:21:32.418Z,17.60
2018-03-21T01:24:35.567Z,17.60
2018-03-21T01:27:38.733Z,17.60
2018-03-21T01:30:41.867Z,17.60
2018-03-21T01:33:45.249Z,17.60
2018-03-21T01:36:49.189Z,17.70
2018-03-21T01:39:52.359Z,17.60
2018-03-21T01:42:55.524Z,17.70
2018-03-21T01:45:58.677Z,17.70
2018-03-21T01:49:02.665Z,17.70
2018-03-21T01:52:05.852Z,17.70
2018-03-21T01:55:08.999Z,17.70
2018-03-21T01:58:12.176Z,17.70
2018-03-21T02:01:15.317Z,17.80
2018-03-21T02:04:18.505Z,17.70
2018-03-21T02:07:21.685Z,17.70
2018-03-21T02:10:25.652Z,17.60
2018-03-21T02:13:28.858Z,17.70
2018-03-21T02:16:32.140Z,17.60
2018-03-21T02:19:35.334Z,17.60
2018-03-21T02:22:39.246Z,17.50
2018-03-21T02:25:42.415Z,17.60
2018-03-21T02:28:45.682Z,17.60
2018-03-21T02:31:49.602Z,17.50
2018-03-21T02:34:53.537Z,17.50
2018-03-21T02:37:56.692Z,17.50
2018-03-21T02:40:59.867Z,17.50
2018-03-21T02:44:03.078Z,17.60
2018-03-21T02:47:06.254Z,17.70
2018-03-21T02:50:10.213Z,17.80
2018-03-21T02:53:13.358Z,17.80
2018-03-21T02:56:16.521Z,17.90
2018-03-21T02:59:20.457Z,17.90
2018-03-21T03:02:23.625Z,17.90
2018-03-21T03:05:26.815Z,17.90
2018-03-21T03:08:29.966Z,17.90
2018-03-21T03:11:33.943Z,17.90
2018-03-21T03:14:37.152Z,17.90
2018-03-21T03:17:40.476Z,17.80
2018-03-21T03:20:43.657Z,17.80
2018-03-21T03:23:46.947Z,17.70
2018-03-21T03:26:50.888Z,17.70
2018-03-21T03:29:54.072Z,17.70
2018-03-21T03:32:58.123Z,17.60
2018-03-21T03:36:01.318Z,17.60
2018-03-21T03:39:05.243Z,17.60
2018-03-21T03:42:09.175Z,17.60
2018-03-21T03:45:13.114Z,17.60
2018-03-21T03:48:16.283Z,17.60
2018-03-21T03:51:19.456Z,17.60
2018-03-21T03:54:22.615Z,17.60
2018-03-21T03:57:26.580Z,17.70
2018-03-21T04:00:29.877Z,17.60
2018-03-21T04:03:33.788Z,17.70
2018-03-21T04:06:37.727Z,17.70
2018-03-21T04:09:41.656Z,17.70
2018-03-21T04:12:45.606Z,17.70
2018-03-21T04:15:48.898Z,17.70
2018-03-21T04:18:52.094Z,17.70
2018-03-21T04:21:55.263Z,17.70
2018-03-21T04:24:58.417Z,17.70
2018-03-21T04:28:02.394Z,17.60
2018-03-21T04:31:05.565Z,17.60
2018-03-21T04:34:08.733Z,17.60
2018-03-21T04:37:11.893Z,17.60
2018-03-21T04:40:15.046Z,17.60
2018-03-21T04:43:18.216Z,17.50
2018-03-21T04:46:21.389Z,17.50
2018-03-21T04:49:25.319Z,17.50
2018-03-21T04:52:29.272Z,17.60
2018-03-21T04:55:32.430Z,17.50
2018-03-21T04:58:35.590Z,17.60
2018-03-21T05:01:38.729Z,17.60
2018-03-21T05:04:41.890Z,17.70
2018-03-21T05:07:45.824Z,17.80
2018-03-21T05:10:48.969Z,17.80
2018-03-21T05:13:52.142Z,17.80
2018-03-21T05:16:55.287Z,17.90
2018-03-21T05:19:58.545Z,17.80
2018-03-21T05:23:02.594Z,17.90
2018-03-21T05:26:05.736Z,17.80
2018-03-21T05:29:08.916Z,17.80
2018-03-21T05:32:12.068Z,17.80
2018-03-21T05:35:15.252Z,17.70
2018-03-21T05:38:18.409Z,17.70
2018-03-21T05:41:22.388Z,17.70
2018-03-21T05:44:25.585Z,17.60
2018-03-21T05:47:28.750Z,17.60
2018-03-21T05:50:31.937Z,17.60
2018-03-21T05:53:35.123Z,17.60
2018-03-21T05:56:38.310Z,17.50
2018-03-21T05:59:41.486Z,17.50
2018-03-21T06:02:44.642Z,17.50
2018-03-21T06:05:47.825Z,17.50
2018-03-21T06:08:51.749Z,17.60
2018-03-21T06:11:55.695Z,17.80
2018-03-21T06:14:58.881Z,17.70
2018-03-21T06:18:02.925Z,18.00
2018-03-21T06:21:06.871Z,18.00
2018-03-21T06:24:10.022Z,18.00
2018-03-21T06:27:13.210Z,18.10
2018-03-21T06:30:16.384Z,18.10
2018-03-21T06:33:19.540Z,18.10
2018-03-21T06:36:22.735Z,18.10
2018-03-21T06:39:25.928Z,18.10
2018-03-21T06:42:29.146Z,18.00
2018-03-21T06:45:32.325Z,18.00
2018-03-21T06:48:36.279Z,17.90
2018-03-21T06:51:39.453Z,17.90
2018-03-21T06:54:43.384Z,17.90
2018-03-21T06:57:47.289Z,17.80
2018-03-21T07:00:50.456Z,17.80
2018-03-21T07:03:53.609Z,17.80
2018-03-21T07:06:56.778Z,17.70
2018-03-21T07:10:00.039Z,17.70
2018-03-21T07:13:03.181Z,17.70
2018-03-21T07:16:18.266Z,17.70
2018-03-21T07:19:21.403Z,17.70
2018-03-21T07:22:24.764Z,17.70
2018-03-21T07:25:28.730Z,17.90
2018-03-21T07:28:31.912Z,17.90
2018-03-21T07:31:35.094Z,17.90
2018-03-21T07:34:38.231Z,18.00
2018-03-21T07:37:41.416Z,18.10
2018-03-21T07:40:44.561Z,18.10
2018-03-21T07:43:47.730Z,18.10
2018-03-21T07:46:50.901Z,18.10
2018-03-21T07:49:54.050Z,18.10
2018-03-21T07:52:57.230Z,18.10
2018-03-21T07:56:00.423Z,18.10
2018-03-21T07:59:04.430Z,17.70
2018-03-21T08:02:07.625Z,17.70
2018-03-21T08:05:12.439Z,17.60
2018-03-21T08:08:15.698Z,17.50
2018-03-21T08:11:18.839Z,17.40
2018-03-21T08:14:22.017Z,17.40
2018-03-21T08:17:25.192Z,17.30
2018-03-21T08:20:28.358Z,17.30
2018-03-21T08:23:31.537Z,17.30
2018-03-21T08:26:34.738Z,17.30
2018-03-21T08:29:38.677Z,17.20
2018-03-21T08:32:41.816Z,17.30
2018-03-21T08:35:45.002Z,17.30
2018-03-21T08:38:48.172Z,17.30
2018-03-21T08:41:51.312Z,17.30
2018-03-21T08:44:54.488Z,17.30
2018-03-21T08:47:58.245Z,17.30
2018-03-21T08:51:01.404Z,17.30
2018-03-21T08:54:04.707Z,17.50
2018-03-21T08:57:07.908Z,17.70
2018-03-21T09:00:11.133Z,17.80
2018-03-21T09:03:14.332Z,17.90
2018-03-21T09:06:17.473Z,17.90
2018-03-21T09:09:20.652Z,17.90
2018-03-21T09:12:23.805Z,17.80
2018-03-21T09:15:27.768Z,17.80
2018-03-21T09:18:31.009Z,17.80
2018-03-21T09:21:34.188Z,17.70
2018-03-21T09:24:37.357Z,17.70
2018-03-21T09:27:41.282Z,17.70
2018-03-21T09:30:45.230Z,17.70
2018-03-21T09:33:48.386Z,17.70
2018-03-21T09:36:51.566Z,17.70
2018-03-21T09:39:54.740Z,17.70
2018-03-21T09:42:58.660Z,17.70
2018-03-21T09:46:02.206Z,17.70
2018-03-21T09:49:05.713Z,17.70
2018-03-21T09:52:08.915Z,17.70
2018-03-21T09:55:12.863Z,17.80
2018-03-21T09:58:16.056Z,17.70
2018-03-21T10:01:20.005Z,17.80
2018-03-21T10:04:23.164Z,17.80
2018-03-21T10:07:26.343Z,17.80
2018-03-21T10:10:29.521Z,17.80
2018-03-21T10:13:32.728Z,17.80
2018-03-21T10:16:35.925Z,17.80
2018-03-21T10:19:39.142Z,17.80
2018-03-21T10:22:43.080Z,17.80
2018-03-21T10:25:46.298Z,17.70
2018-03-21T10:28:49.475Z,17.70
2018-03-21T10:31:53.434Z,17.70
2018-03-21T10:34:56.602Z,17.70
2018-03-21T10:37:59.949Z,17.70
2018-03-21T10:41:03.358Z,17.70
2018-03-21T10:44:06.524Z,17.70
2018-03-21T10:47:09.691Z,17.70
2018-03-21T10:50:12.851Z,17.70
2018-03-21T10:53:16.081Z,17.80
2018-03-21T10:56:20.044Z,17.80
2018-03-21T10:59:23.198Z,17.80
2018-03-21T11:02:26.378Z,17.80
2018-03-21T11:05:29.757Z,17.80
2018-03-21T11:08:32.945Z,17.90
2018-03-21T11:11:36.947Z,17.90
2018-03-21T11:14:40.156Z,17.90
2018-03-21T11:17:43.443Z,17.90
2018-03-21T11:20:46.605Z,17.90
2018-03-21T11:23:50.551Z,17.80
2018-03-21T11:26:53.732Z,17.80
2018-03-21T11:29:57.660Z,17.80
2018-03-21T11:33:01.638Z,17.70
2018-03-21T11:36:04.815Z,17.70
2018-03-21T11:39:08.006Z,17.70
2018-03-21T11:42:12.020Z,17.70
2018-03-21T11:45:15.156Z,17.70
2018-03-21T11:48:19.085Z,17.60
2018-03-21T11:51:22.993Z,17.60
2018-03-21T11:54:26.177Z,17.60
2018-03-21T11:57:29.378Z,17.60
2018-03-21T12:00:32.620Z,17.60
2018-03-21T12:03:35.770Z,17.60
2018-03-21T12:06:38.921Z,17.70
2018-03-21T12:09:42.105Z,17.70
2018-03-21T12:12:45.278Z,17.80
2018-03-21T12:15:49.206Z,18.00
2018-03-21T12:18:52.380Z,18.00
2018-03-21T12:21:55.544Z,18.00
2018-03-21T12:24:58.754Z,18.10
2018-03-21T12:28:01.960Z,18.10
2018-03-21T12:31:05.165Z,18.10
2018-03-21T12:34:08.367Z,18.10
2018-03-21T12:37:12.326Z,18.10
2018-03-21T12:40:15.536Z,18.10
2018-03-21T12:43:18.732Z,18.00
2018-03-21T12:46:21.889Z,18.00
2018-03-21T12:49:25.073Z,17.90
2018-03-21T12:52:29.154Z,17.90
2018-03-21T12:55:33.093Z,17.90
2018-03-21T12:58:36.272Z,17.80
2018-03-21T13:01:39.436Z,17.80
2018-03-21T13:04:42.650Z,17.80
2018-03-21T13:07:45.837Z,17.80
2018-03-21T13:10:49.006Z,17.80
2018-03-21T13:13:52.203Z,17.80
2018-03-21T13:16:55.364Z,17.80
2018-03-21T13:19:58.669Z,17.90
2018-03-21T13:23:01.842Z,17.90
2018-03-21T13:26:05.089Z,17.90
2018-03-21T13:29:08.245Z,17.90
2018-03-21T13:32:11.408Z,17.90
2018-03-21T13:35:14.600Z,18.00
2018-03-21T13:38:18.518Z,18.10
2018-03-21T13:41:21.696Z,18.00
2018-03-21T13:44:24.876Z,18.10
2018-03-21T13:47:28.032Z,18.10
2018-03-21T13:50:31.385Z,18.00
2018-03-21T13:53:34.538Z,18.00
2018-03-21T13:56:37.717Z,18.00
2018-03-21T13:59:40.877Z,17.90
2018-03-21T14:02:44.056Z,17.90
2018-03-21T14:05:47.229Z,17.90
2018-03-21T14:08:50.374Z,17.80
2018-03-21T14:11:53.563Z,17.80
2018-03-21T14:14:56.780Z,17.80
2018-03-21T14:18:00.106Z,17.80
2018-03-21T14:21:03.843Z,17.80
2018-03-21T14:24:07.524Z,17.90
2018-03-21T14:27:10.829Z,17.90
2018-03-21T14:30:14.442Z,18.00
2018-03-21T14:33:18.436Z,18.00
2018-03-21T14:36:21.616Z,18.00
2018-03-21T14:39:24.829Z,18.10
2018-03-21T14:42:28.015Z,18.00
2018-03-21T14:45:31.192Z,18.00
2018-03-21T14:48:34.752Z,18.00
2018-03-21T14:51:37.992Z,18.00
2018-03-21T14:54:41.166Z,18.00
2018-03-21T14:57:44.342Z,18.00
2018-03-21T15:00:48.258Z,17.90
2018-03-21T15:03:51.434Z,17.90
2018-03-21T15:06:54.630Z,17.90
2018-03-21T15:09:57.919Z,17.80
2018-03-21T15:13:03.169Z,17.90
2018-03-21T15:16:06.493Z,17.80
2018-03-21T15:19:09.680Z,17.80
2018-03-21T15:22:14.732Z,17.80
2018-03-21T15:25:17.961Z,17.80
2018-03-21T15:28:21.163Z,17.80
2018-03-21T15:31:24.320Z,18.00
2018-03-21T15:34:27.604Z,18.20
2018-03-21T15:37:30.877Z,18.50
2018-03-21T15:40:34.041Z,18.60
2018-03-21T15:43:37.217Z,18.80
2018-03-21T15:46:41.136Z,19.20
2018-03-21T15:49:45.094Z,19.30
2018-03-21T15:52:48.254Z,19.20
2018-03-21T15:55:51.504Z,19.30
2018-03-21T15:58:54.858Z,19.40
2018-03-21T16:01:58.138Z,19.40
2018-03-21T16:05:01.320Z,19.40
2018-03-21T16:08:05.244Z,19.40
2018-03-21T16:11:09.201Z,19.30
2018-03-21T16:14:12.372Z,19.30
2018-03-21T16:17:16.285Z,19.20
2018-03-21T16:20:20.253Z,19.20
2018-03-21T16:23:23.404Z,19.20
2018-03-21T16:26:26.577Z,19.20
2018-03-21T16:29:29.747Z,19.10
2018-03-21T16:32:33.936Z,18.90
2018-03-21T16:35:37.133Z,18.90
2018-03-21T16:38:40.292Z,18.80
2018-03-21T16:41:43.533Z,18.70
2018-03-21T16:44:46.860Z,18.70
2018-03-21T16:47:50.015Z,18.60
2018-03-21T16:50:53.227Z,18.60
2018-03-21T16:53:56.449Z,18.70
2018-03-21T16:56:59.879Z,18.70
2018-03-21T17:00:03.061Z,18.80
2018-03-21T17:03:06.299Z,18.90
2018-03-21T17:06:10.246Z,19.10
2018-03-21T17:09:13.406Z,19.10
2018-03-21T17:12:16.607Z,19.10
2018-03-21T17:15:19.776Z,19.20
2018-03-21T17:18:22.917Z,19.20
2018-03-21T17:21:26.100Z,19.20
2018-03-21T17:24:29.390Z,19.20
2018-03-21T17:27:33.649Z,19.20
2018-03-21T17:30:36.825Z,19.10
2018-03-21T17:33:40.009Z,19.10
2018-03-21T17:36:43.188Z,19.10
2018-03-21T17:39:46.351Z,19.10
2018-03-21T17:42:50.320Z,18.90
2018-03-21T17:45:53.501Z,18.90
2018-03-21T17:48:56.693Z,18.80
2018-03-21T17:51:59.858Z,18.70
2018-03-21T17:55:03.015Z,18.70
2018-03-21T17:58:06.187Z,18.70
2018-03-21T18:01:10.146Z,18.70
2018-03-21T18:04:13.335Z,18.70
2018-03-21T18:07:17.256Z,18.80
2018-03-21T18:10:20.400Z,18.80
2018-03-21T18:13:23.623Z,18.90
2018-03-21T18:16:26.802Z,19.00
2018-03-21T18:19:29.952Z,19.10
2018-03-21T18:22:33.124Z,19.20
2018-03-21T18:25:36.276Z,19.20
2018-03-21T18:28:39.460Z,19.30
2018-03-21T18:31:42.664Z,19.30
2018-03-21T18:34:45.817Z,19.30
2018-03-21T18:37:49.985Z,19.20
2018-03-21T18:40:53.134Z,19.20
2018-03-21T18:43:56.326Z,19.10
2018-03-21T18:46:59.545Z,19.10
2018-03-21T18:50:02.718Z,19.00
2018-03-21T18:53:05.913Z,19.00
2018-03-21T18:56:09.059Z,18.90
2018-03-21T18:59:12.244Z,18.80
2018-03-21T19:02:15.432Z,18.80
2018-03-21T19:05:19.354Z,18.70
2018-03-21T19:08:23.306Z,18.70
2018-03-21T19:11:26.487Z,18.60
2018-03-21T19:14:30.434Z,18.60
2018-03-21T19:17:33.597Z,18.60
2018-03-21T19:20:36.792Z,18.70
2018-03-21T19:23:39.969Z,18.70
2018-03-21T19:26:43.132Z,18.80
2018-03-21T19:29:46.305Z,18.90
2018-03-21T19:32:49.448Z,19.00
2018-03-21T19:35:52.637Z,19.10
2018-03-21T19:38:55.852Z,19.20
2018-03-21T19:41:59.027Z,19.30
2018-03-21T19:45:02.229Z,19.30
2018-03-21T19:48:05.373Z,19.30
2018-03-21T19:51:08.597Z,19.30
2018-03-21T19:54:11.774Z,19.20
2018-03-21T19:57:14.933Z,19.20
2018-03-21T20:00:18.103Z,19.10
2018-03-21T20:03:21.269Z,19.10
2018-03-21T20:06:25.209Z,18.90
2018-03-21T20:09:29.162Z,18.80
2018-03-21T20:12:32.328Z,18.80
2018-03-21T20:15:36.260Z,18.70
2018-03-21T20:18:40.180Z,18.70
2018-03-21T20:21:44.118Z,18.70
2018-03-21T20:24:48.039Z,18.60
2018-03-21T20:27:51.991Z,18.60
2018-03-21T20:30:55.173Z,18.60
2018-03-21T20:33:59.092Z,18.80
2018-03-21T20:37:03.157Z,18.80
2018-03-21T20:40:06.887Z,18.80
2018-03-21T20:43:10.202Z,18.90
2018-03-21T20:46:13.442Z,19.00
2018-03-21T20:49:16.681Z,19.10
2018-03-21T20:52:20.729Z,19.30
2018-03-21T20:55:23.948Z,19.30
2018-03-21T20:58:28.158Z,19.30
2018-03-21T21:01:31.892Z,19.40
2018-03-21T21:04:36.057Z,19.30
2018-03-21T21:07:39.244Z,19.30
2018-03-21T21:10:42.399Z,19.20
2018-03-21T21:13:45.820Z,19.20
2018-03-21T21:16:48.998Z,19.10
2018-03-21T21:19:52.168Z,19.00
2018-03-21T21:22:56.156Z,18.90
2018-03-21T21:25:59.359Z,18.90
2018-03-21T21:29:02.541Z,18.90
2018-03-21T21:32:05.757Z,18.80
2018-03-21T21:35:08.919Z,18.80
2018-03-21T21:38:12.862Z,18.70
2018-03-21T21:41:16.789Z,18.70
2018-03-21T21:44:20.743Z,18.70
2018-03-21T21:47:23.949Z,18.70
2018-03-21T21:50:27.101Z,18.80
2018-03-21T21:53:30.315Z,18.90
2018-03-21T21:56:33.477Z,19.00
2018-03-21T21:59:36.648Z,19.10
2018-03-21T22:02:39.817Z,19.20
2018-03-21T22:05:42.966Z,19.30
2018-03-21T22:08:46.900Z,19.30
2018-03-21T22:11:50.814Z,19.40
2018-03-21T22:14:54.769Z,19.30
2018-03-21T22:17:57.962Z,19.40
2018-03-21T22:21:01.940Z,19.30
2018-03-21T22:24:05.126Z,19.30
2018-03-21T22:27:08.284Z,19.30
2018-03-21T22:30:11.543Z,19.20
2018-03-21T22:33:14.725Z,19.20
2018-03-21T22:36:17.894Z,19.10
2018-03-21T22:39:21.148Z,19.10
2018-03-21T22:42:25.098Z,19.00
2018-03-21T22:45:29.222Z,18.90
2018-03-21T22:48:32.473Z,18.90
2018-03-21T22:51:35.637Z,18.90
2018-03-21T22:54:39.577Z,18.80
2018-03-21T22:57:42.728Z,18.80
2018-03-21T23:00:45.913Z,18.80
2018-03-21T23:03:49.070Z,18.80
2018-03-21T23:06:52.310Z,18.90
2018-03-21T23:09:55.498Z,18.90
2018-03-21T23:12:58.661Z,19.00
2018-03-21T23:16:01.872Z,19.10
2018-03-21T23:19:05.043Z,19.20
2018-03-21T23:22:08.980Z,19.30
2018-03-21T23:25:12.199Z,19.30
2018-03-21T23:28:15.339Z,19.30
2018-03-21T23:31:18.548Z,19.30
2018-03-21T23:34:21.813Z,19.30
2018-03-21T23:37:25.791Z,19.30
2018-03-21T23:40:29.007Z,19.30
2018-03-21T23:43:32.287Z,19.30
2018-03-21T23:46:35.465Z,19.30
2018-03-21T23:49:39.415Z,19.20
2018-03-21T23:52:42.629Z,19.20
2018-03-21T23:55:45.841Z,19.10
2018-03-21T23:58:49.006Z,19.10
